Time;durP1;ratioP1;P1;durP2;ratioP2;P2;SDS_P1;SDS_P2;PMS_P1;PMS_P2;Temp;Humidity;BMP_temperature;BMP_pressure;BME280_temperature;BME280_humidity;BME280_pressure;Samples;Min_cycle;Max_cycle;Signal;HPM_P1;HPM_P2
2023/10/31 00:02:18;;;;;;;;;;;23.50;53.40;;;;;;5114235;28;19928;-55
2023/10/31 00:04:45;;;;;;;;;;;23.50;53.30;;;;;;5113035;28;20372;-56
2023/10/31 00:07:12;;;;;;;;;;;23.50;53.30;;;;;;5113907;28;20379;-58
2023/10/31 00:09:39;;;;;;;;;;;23.50;53.30;;;;;;5113990;28;19967;-57
2023/10/31 00:12:06;;;;;;;;;;;23.50;53.30;;;;;;5095759;28;20444;-56
2023/10/31 00:14:33;;;;;;;;;;;23.50;53.20;;;;;;5093681;28;19924;-56
2023/10/31 00:17:00;;;;;;;;;;;23.50;53.20;;;;;;5093169;28;19995;-57
2023/10/31 00:19:27;;;;;;;;;;;23.50;53.20;;;;;;5093477;28;20403;-57
2023/10/31 00:21:54;;;;;;;;;;;23.50;53.20;;;;;;5098605;28;19934;-58
2023/10/31 00:24:21;;;;;;;;;;;23.50;53.20;;;;;;5113720;28;19931;-57
2023/10/31 00:26:48;;;;;;;;;;;23.50;53.20;;;;;;5113892;28;19924;-58
2023/10/31 00:29:15;;;;;;;;;;;23.50;53.20;;;;;;5113998;28;20363;-57
2023/10/31 00:31:42;;;;;;;;;;;23.50;53.20;;;;;;5113817;28;19977;-57
2023/10/31 00:34:10;;;;;;;;;;;23.50;53.20;;;;;;5113310;28;19924;-57
2023/10/31 00:36:37;;;;;;;;;;;23.50;53.20;;;;;;5114033;28;19927;-57
2023/10/31 00:39:04;;;;;;;;;;;23.50;53.20;;;;;;5114171;28;20261;-56
2023/10/31 00:41:31;;;;;;;;;;;23.50;53.20;;;;;;5113704;28;19924;-58
2023/10/31 00:43:58;;;;;;;;;;;23.50;53.20;;;;;;5113375;28;20443;-56
2023/10/31 00:46:25;;;;;;;;;;;23.50;53.20;;;;;;5113675;28;19923;-57
2023/10/31 00:48:52;;;;;;;;;;;23.50;53.20;;;;;;5113727;28;19959;-58
2023/10/31 00:51:19;;;;;;;;;;;23.50;53.20;;;;;;5114193;28;19950;-57
2023/10/31 00:53:46;;;;;;;;;;;23.50;53.20;;;;;;5117372;28;19928;-57
2023/10/31 00:56:13;;;;;;;;;;;23.50;53.20;;;;;;5117889;28;19994;-58
2023/10/31 00:58:40;;;;;;;;;;;23.40;53.20;;;;;;5105608;28;20333;-57
2023/10/31 01:01:07;;;;;;;;;;;23.50;53.20;;;;;;5097302;28;19924;-58
2023/10/31 01:03:34;;;;;;;;;;;23.40;53.20;;;;;;5096976;28;19930;-58
2023/10/31 01:06:01;;;;;;;;;;;23.50;53.20;;;;;;5096541;28;20372;-58
2023/10/31 01:08:29;;;;;;;;;;;23.50;53.30;;;;;;5096744;28;19935;-57
2023/10/31 01:10:56;;;;;;;;;;;23.50;53.30;;;;;;5097269;28;19924;-59
2023/10/31 01:13:23;;;;;;;;;;;23.50;53.30;;;;;;5096818;28;19946;-57
2023/10/31 01:15:50;;;;;;;;;;;23.50;53.30;;;;;;5096859;28;19928;-59
2023/10/31 01:18:18;;;;;;;;;;;23.50;53.30;;;;;;5096575;28;19924;-58
2023/10/31 01:20:44;;;;;;;;;;;23.50;53.30;;;;;;5095464;28;19928;-58
2023/10/31 01:23:11;;;;;;;;;;;23.50;53.20;;;;;;5096623;28;19970;-57
2023/10/31 01:25:38;;;;;;;;;;;23.50;53.20;;;;;;5096742;28;19958;-57
2023/10/31 01:28:05;;;;;;;;;;;23.50;53.20;;;;;;5096568;28;19935;-58
2023/10/31 01:30:33;;;;;;;;;;;23.50;53.10;;;;;;5096209;28;19982;-57
2023/10/31 01:33:00;;;;;;;;;;;23.50;53.10;;;;;;5096352;28;20384;-58
2023/10/31 01:35:27;;;;;;;;;;;23.50;53.00;;;;;;5096354;28;19924;-56
2023/10/31 01:37:54;;;;;;;;;;;23.50;53.00;;;;;;5096095;28;19975;-55
2023/10/31 01:40:21;;;;;;;;;;;23.50;53.00;;;;;;5109761;28;19924;-56
2023/10/31 01:42:48;;;;;;;;;;;23.50;53.00;;;;;;5116413;28;19972;-57
2023/10/31 01:45:15;;;;;;;;;;;23.50;53.00;;;;;;5116873;28;19969;-53
2023/10/31 01:47:44;;;;;;;;;;;23.50;53.00;;;;;;5116197;28;19924;-55
2023/10/31 01:50:11;;;;;;;;;;;23.50;53.00;;;;;;5116311;28;20439;-55
2023/10/31 01:52:38;;;;;;;;;;;23.50;53.00;;;;;;5115526;28;19924;-56
2023/10/31 01:55:05;;;;;;;;;;;23.50;53.00;;;;;;5116637;28;19924;-56
2023/10/31 01:57:32;;;;;;;;;;;23.50;52.90;;;;;;5116077;28;20279;-54
2023/10/31 01:59:59;;;;;;;;;;;23.50;52.90;;;;;;5115315;28;19976;-52
2023/10/31 02:02:27;;;;;;;;;;;23.50;52.90;;;;;;5115961;28;20372;-56
2023/10/31 02:04:54;;;;;;;;;;;23.50;52.90;;;;;;5116572;28;20010;-57
2023/10/31 02:07:21;;;;;;;;;;;23.50;52.90;;;;;;5116401;28;19923;-57
2023/10/31 02:09:48;;;;;;;;;;;23.50;52.90;;;;;;5115902;28;19962;-57
2023/10/31 02:12:32;;;;;;;;;;;23.50;52.90;;;;;;5115518;28;19981;-58
2023/10/31 02:14:59;;;;;;;;;;;23.50;52.90;;;;;;5115968;27;20337;-56
2023/10/31 02:17:27;;;;;;;;;;;23.50;52.90;;;;;;5115780;28;20339;-57
2023/10/31 02:19:54;;;;;;;;;;;23.50;52.90;;;;;;5115971;28;19928;-57
2023/10/31 02:22:22;;;;;;;;;;;23.50;52.90;;;;;;5114546;28;20018;-57
2023/10/31 02:24:49;;;;;;;;;;;23.50;52.90;;;;;;5115968;28;20648;-56
2023/10/31 02:27:16;;;;;;;;;;;23.50;52.90;;;;;;5115969;28;20034;-56
2023/10/31 02:29:43;;;;;;;;;;;23.50;53.00;;;;;;5115373;28;19940;-55
2023/10/31 02:32:10;;;;;;;;;;;23.50;52.90;;;;;;5115350;28;19935;-57
2023/10/31 02:34:37;;;;;;;;;;;23.50;53.00;;;;;;5115513;28;19927;-56
2023/10/31 02:37:05;;;;;;;;;;;23.50;53.00;;;;;;5097419;28;19924;-56
2023/10/31 02:39:33;;;;;;;;;;;23.50;53.00;;;;;;5095164;28;19970;-56
2023/10/31 02:41:59;;;;;;;;;;;23.50;53.50;;;;;;5100864;28;19928;-57
2023/10/31 02:44:27;;;;;;;;;;;23.50;53.00;;;;;;5115562;28;19971;-56
2023/10/31 02:46:54;;;;;;;;;;;23.50;53.00;;;;;;5114983;28;19923;-55
2023/10/31 02:49:21;;;;;;;;;;;23.50;53.00;;;;;;5115370;28;19946;-57
2023/10/31 02:51:48;;;;;;;;;;;23.50;53.00;;;;;;5115287;28;20035;-56
2023/10/31 02:54:15;;;;;;;;;;;23.50;53.00;;;;;;5115252;28;19928;-56
2023/10/31 02:56:42;;;;;;;;;;;23.50;52.90;;;;;;5115178;28;19978;-58
2023/10/31 02:59:09;;;;;;;;;;;23.50;52.90;;;;;;5114155;28;20333;-58
2023/10/31 03:01:36;;;;;;;;;;;23.50;52.80;;;;;;5114503;28;19931;-57
2023/10/31 03:04:04;;;;;;;;;;;23.50;52.80;;;;;;5130699;27;20280;-58
2023/10/31 03:06:31;;;;;;;;;;;23.50;52.80;;;;;;5114993;28;19924;-55
2023/10/31 03:08:58;;;;;;;;;;;23.50;52.80;;;;;;5114956;28;20015;-56
2023/10/31 03:11:25;;;;;;;;;;;23.50;52.80;;;;;;5101174;28;19924;-57
2023/10/31 03:13:53;;;;;;;;;;;23.50;52.80;;;;;;5093585;28;19924;-55
2023/10/31 03:16:21;;;;;;;;;;;23.50;52.70;;;;;;5094305;28;19924;-52
2023/10/31 03:18:48;;;;;;;;;;;23.50;52.70;;;;;;5093886;28;19932;-56
2023/10/31 03:21:16;;;;;;;;;;;23.50;52.70;;;;;;5094244;28;20022;-55
2023/10/31 03:23:49;;;;;;;;;;;23.50;52.70;;;;;;5093965;28;19982;-55
2023/10/31 03:26:17;;;;;;;;;;;23.50;52.70;;;;;;5094230;28;19928;-56
2023/10/31 03:28:44;;;;;;;;;;;23.50;52.70;;;;;;5094128;28;19924;-57
2023/10/31 03:31:12;;;;;;;;;;;23.50;52.70;;;;;;5094110;28;20336;-56
2023/10/31 03:33:39;;;;;;;;;;;23.50;52.70;;;;;;5093958;28;20285;-57
2023/10/31 03:36:08;;;;;;;;;;;23.50;52.70;;;;;;5093817;28;19970;-56
2023/10/31 03:38:35;;;;;;;;;;;23.50;52.70;;;;;;5094194;28;19924;-56
2023/10/31 03:41:02;;;;;;;;;;;23.50;52.70;;;;;;5094311;28;19924;-57
2023/10/31 03:43:29;;;;;;;;;;;23.50;52.70;;;;;;5093731;28;19963;-57
2023/10/31 03:45:56;;;;;;;;;;;23.50;52.70;;;;;;5094087;28;19924;-56
2023/10/31 03:48:24;;;;;;;;;;;23.50;52.70;;;;;;5094151;28;19947;-56
2023/10/31 03:50:51;;;;;;;;;;;23.50;52.70;;;;;;5094072;28;20338;-57
2023/10/31 03:53:18;;;;;;;;;;;23.50;52.70;;;;;;5093486;28;19931;-56
2023/10/31 03:55:45;;;;;;;;;;;23.50;52.80;;;;;;5093547;28;19971;-56
2023/10/31 03:58:13;;;;;;;;;;;23.50;52.80;;;;;;5100934;28;19924;-55
2023/10/31 04:00:40;;;;;;;;;;;23.50;52.80;;;;;;5114119;28;19924;-56
2023/10/31 04:03:08;;;;;;;;;;;23.50;52.80;;;;;;5102373;28;19923;-55
2023/10/31 04:05:35;;;;;;;;;;;23.50;52.80;;;;;;5093472;28;20031;-56
2023/10/31 04:08:02;;;;;;;;;;;23.50;52.80;;;;;;5093457;28;19970;-57
2023/10/31 04:10:29;;;;;;;;;;;23.50;52.80;;;;;;5093496;28;19928;-55
2023/10/31 04:12:56;;;;;;;;;;;23.50;52.80;;;;;;5093441;28;19989;-55
2023/10/31 04:15:23;;;;;;;;;;;23.50;53.30;;;;;;5093560;28;20372;-56
2023/10/31 04:17:50;;;;;;;;;;;23.50;52.80;;;;;;5093627;28;19928;-56
2023/10/31 04:20:17;;;;;;;;;;;23.50;52.70;;;;;;5093689;28;19924;-56
2023/10/31 04:22:44;;;;;;;;;;;23.50;52.70;;;;;;5096872;28;20391;-53
2023/10/31 04:25:11;;;;;;;;;;;23.50;52.60;;;;;;5113782;28;19934;-55
2023/10/31 04:27:38;;;;;;;;;;;23.50;52.70;;;;;;5116435;28;19923;-56
2023/10/31 04:30:06;;;;;;;;;;;23.50;52.60;;;;;;5118133;28;20388;-56
2023/10/31 04:32:33;;;;;;;;;;;23.50;52.60;;;;;;5117778;28;19927;-56
2023/10/31 04:35:00;;;;;;;;;;;23.50;52.50;;;;;;5118184;28;19924;-57
2023/10/31 04:37:27;;;;;;;;;;;23.50;52.60;;;;;;5117951;28;19924;-56
2023/10/31 04:39:54;;;;;;;;;;;23.50;52.40;;;;;;5116870;28;20015;-57
2023/10/31 04:42:22;;;;;;;;;;;23.50;51.90;;;;;;5117224;28;19970;-55
2023/10/31 04:44:49;;;;;;;;;;;23.50;51.30;;;;;;5117752;28;20038;-57
2023/10/31 04:47:16;;;;;;;;;;;23.50;50.50;;;;;;5117917;28;19931;-57
2023/10/31 04:49:43;;;;;;;;;;;23.50;50.20;;;;;;5117587;28;19930;-57
2023/10/31 04:52:11;;;;;;;;;;;23.50;50.00;;;;;;5117802;28;19950;-56
2023/10/31 04:54:39;;;;;;;;;;;23.50;49.80;;;;;;5117546;28;19971;-56
2023/10/31 04:57:06;;;;;;;;;;;23.50;49.70;;;;;;5117809;28;19963;-57
2023/10/31 04:59:33;;;;;;;;;;;23.50;49.60;;;;;;5117279;28;19924;-56
2023/10/31 05:02:00;;;;;;;;;;;23.50;49.50;;;;;;5117322;28;19980;-56
2023/10/31 05:04:28;;;;;;;;;;;23.40;49.40;;;;;;5117377;28;20019;-56
2023/10/31 05:06:56;;;;;;;;;;;23.50;49.20;;;;;;5117275;28;19967;-57
2023/10/31 05:09:23;;;;;;;;;;;23.50;49.30;;;;;;5117379;28;19928;-56
2023/10/31 05:11:51;;;;;;;;;;;23.40;49.10;;;;;;5116060;28;19928;-52
2023/10/31 05:14:17;;;;;;;;;;;23.40;49.00;;;;;;5117170;28;20265;-56
2023/10/31 05:16:45;;;;;;;;;;;23.40;48.80;;;;;;5117079;28;20329;-57
2023/10/31 05:19:12;;;;;;;;;;;23.40;48.80;;;;;;5116917;27;20395;-56
2023/10/31 05:21:39;;;;;;;;;;;23.40;48.70;;;;;;5114746;28;19924;-56
2023/10/31 05:24:06;;;;;;;;;;;23.40;48.50;;;;;;5096652;28;19936;-56
2023/10/31 05:26:33;;;;;;;;;;;23.40;48.40;;;;;;5096769;28;19947;-61
2023/10/31 05:29:00;;;;;;;;;;;23.40;48.10;;;;;;5096450;28;19924;-56
2023/10/31 05:31:27;;;;;;;;;;;23.40;48.00;;;;;;5094938;28;19963;-56
2023/10/31 05:33:54;;;;;;;;;;;23.40;48.00;;;;;;5096353;28;19924;-57
2023/10/31 05:36:23;;;;;;;;;;;23.40;47.80;;;;;;5095337;28;20368;-57
2023/10/31 05:38:50;;;;;;;;;;;23.40;47.80;;;;;;5096265;28;19932;-57
2023/10/31 05:41:17;;;;;;;;;;;23.40;47.70;;;;;;5116448;28;20388;-54
2023/10/31 05:43:44;;;;;;;;;;;23.40;47.70;;;;;;5115397;28;19924;-56
2023/10/31 05:46:13;;;;;;;;;;;23.40;47.60;;;;;;5116435;28;19923;-56
2023/10/31 05:48:43;;;;;;;;;;;23.40;47.60;;;;;;5116255;28;20018;-57
2023/10/31 05:51:19;;;;;;;;;;;23.40;47.50;;;;;;5116369;28;19928;-56
2023/10/31 05:53:48;;;;;;;;;;;23.40;47.30;;;;;;5111661;28;19924;-57
2023/10/31 05:56:16;;;;;;;;;;;23.40;47.20;;;;;;5095658;28;19924;-56
2023/10/31 05:58:43;;;;;;;;;;;23.40;47.00;;;;;;5106107;28;19969;-56
2023/10/31 06:01:10;;;;;;;;;;;23.40;47.10;;;;;;5114248;28;19927;-57
2023/10/31 06:03:40;;;;;;;;;;;23.40;46.90;;;;;;5115326;28;20417;-56
2023/10/31 06:06:08;;;;;;;;;;;23.40;46.70;;;;;;5115562;28;19946;-55
2023/10/31 06:08:35;;;;;;;;;;;23.40;46.70;;;;;;5115203;28;19927;-53
2023/10/31 06:11:03;;;;;;;;;;;23.40;46.60;;;;;;5118723;27;19931;-56
2023/10/31 06:13:31;;;;;;;;;;;23.40;46.60;;;;;;5115739;27;20023;-58
2023/10/31 06:16:00;;;;;;;;;;;23.40;46.60;;;;;;5117846;27;19971;-58
2023/10/31 06:18:28;;;;;;;;;;;23.40;46.80;;;;;;5114155;28;19928;-60
2023/10/31 06:20:55;;;;;;;;;;;23.40;46.70;;;;;;5111575;27;19927;-60
2023/10/31 06:23:23;;;;;;;;;;;23.50;46.60;;;;;;5102430;28;20026;-63
2023/10/31 06:25:50;;;;;;;;;;;23.50;46.40;;;;;;5104673;27;20030;-60
2023/10/31 06:28:17;;;;;;;;;;;23.50;46.20;;;;;;5108348;27;19928;-60
2023/10/31 06:30:44;;;;;;;;;;;23.60;46.10;;;;;;5111075;27;19946;-60
2023/10/31 06:33:11;;;;;;;;;;;23.60;45.90;;;;;;5107618;28;20004;-59
2023/10/31 06:35:39;;;;;;;;;;;23.60;45.70;;;;;;5105408;27;19928;-59
2023/10/31 06:38:06;;;;;;;;;;;23.60;45.50;;;;;;5103365;28;19931;-61
2023/10/31 06:40:33;;;;;;;;;;;23.60;45.50;;;;;;5103925;28;19981;-59
2023/10/31 06:43:01;;;;;;;;;;;23.70;45.80;;;;;;5104951;28;19974;-59
2023/10/31 06:45:28;;;;;;;;;;;23.70;45.80;;;;;;5107556;27;19969;-60
2023/10/31 06:47:56;;;;;;;;;;;23.70;45.80;;;;;;5107412;27;20372;-60
2023/10/31 06:50:24;;;;;;;;;;;23.80;45.80;;;;;;5106435;28;19923;-61
2023/10/31 06:52:51;;;;;;;;;;;23.80;45.70;;;;;;5102512;28;20028;-61
2023/10/31 06:55:18;;;;;;;;;;;23.80;45.20;;;;;;5106250;28;19924;-61
2023/10/31 06:57:45;;;;;;;;;;;23.90;44.60;;;;;;5105878;28;19924;-58
2023/10/31 07:00:13;;;;;;;;;;;23.90;44.80;;;;;;5102453;28;20010;-59
2023/10/31 07:02:40;;;;;;;;;;;23.90;44.90;;;;;;5101771;27;19953;-61
2023/10/31 07:05:07;;;;;;;;;;;23.90;45.00;;;;;;5102747;27;19935;-61
2023/10/31 07:07:35;;;;;;;;;;;23.90;45.10;;;;;;5105418;28;19960;-61
2023/10/31 07:10:02;;;;;;;;;;;23.90;45.10;;;;;;5107654;27;20456;-61
2023/10/31 07:12:30;;;;;;;;;;;24.00;45.20;;;;;;5106624;27;20339;-59
2023/10/31 07:14:58;;;;;;;;;;;24.00;45.20;;;;;;5105388;27;19977;-62
2023/10/31 07:17:25;;;;;;;;;;;24.00;45.00;;;;;;5102093;28;19962;-61
2023/10/31 07:19:53;;;;;;;;;;;24.10;45.00;;;;;;5106794;27;20002;-61
2023/10/31 07:22:20;;;;;;;;;;;24.10;44.90;;;;;;5106118;27;20019;-62
2023/10/31 07:24:48;;;;;;;;;;;24.10;44.40;;;;;;5105296;27;19936;-61
2023/10/31 07:27:15;;;;;;;;;;;24.10;44.10;;;;;;5105510;28;19973;-61
2023/10/31 07:29:42;;;;;;;;;;;24.20;44.20;;;;;;5101500;28;19977;-61
2023/10/31 07:32:09;;;;;;;;;;;24.20;43.90;;;;;;5104475;28;19943;-63
2023/10/31 07:34:40;;;;;;;;;;;24.30;43.80;;;;;;5101296;28;19932;-60
2023/10/31 07:37:07;;;;;;;;;;;24.30;43.60;;;;;;5103964;27;19944;-59
2023/10/31 07:39:34;;;;;;;;;;;24.30;43.40;;;;;;5106716;27;19935;-61
2023/10/31 07:42:01;;;;;;;;;;;24.40;43.40;;;;;;5101762;28;20018;-62
2023/10/31 07:44:28;;;;;;;;;;;24.40;43.10;;;;;;5102232;28;19977;-59
2023/10/31 07:46:55;;;;;;;;;;;24.50;43.00;;;;;;5103255;28;19923;-61
2023/10/31 07:49:23;;;;;;;;;;;24.50;43.30;;;;;;5117720;27;19967;-61
2023/10/31 07:51:50;;;;;;;;;;;24.50;43.30;;;;;;5102591;27;19935;-61
2023/10/31 07:54:17;;;;;;;;;;;24.50;43.10;;;;;;5105889;27;19927;-60
2023/10/31 07:56:44;;;;;;;;;;;24.60;43.00;;;;;;5104648;28;19931;-62
2023/10/31 07:59:11;;;;;;;;;;;24.60;42.90;;;;;;5101517;28;19932;-63
2023/10/31 08:01:39;;;;;;;;;;;24.60;42.80;;;;;;5111326;27;20014;-59
2023/10/31 08:04:06;;;;;;;;;;;24.70;42.70;;;;;;5103832;27;20295;-61
2023/10/31 08:06:33;;;;;;;;;;;24.70;42.60;;;;;;5105075;28;19931;-59
2023/10/31 08:09:00;;;;;;;;;;;24.70;42.50;;;;;;5102383;28;19938;-59
2023/10/31 08:11:27;;;;;;;;;;;24.70;42.50;;;;;;5102874;28;20322;-60
2023/10/31 08:13:54;;;;;;;;;;;24.70;42.50;;;;;;5108453;28;19924;-59
2023/10/31 08:16:21;;;;;;;;;;;24.80;42.80;;;;;;5105031;28;19923;-59
2023/10/31 08:18:49;;;;;;;;;;;24.80;42.80;;;;;;5103524;28;19935;-61
2023/10/31 08:21:16;;;;;;;;;;;24.80;42.80;;;;;;5105988;28;20365;-60
2023/10/31 08:23:46;;;;;;;;;;;24.80;42.80;;;;;;5106634;28;19924;-61
2023/10/31 08:26:13;;;;;;;;;;;24.90;42.80;;;;;;5101383;28;20020;-61
2023/10/31 08:28:41;;;;;;;;;;;24.90;42.90;;;;;;5104143;28;20475;-61
2023/10/31 08:31:08;;;;;;;;;;;24.90;42.80;;;;;;5105395;28;20326;-61
2023/10/31 08:33:35;;;;;;;;;;;24.90;42.60;;;;;;5106005;28;19932;-60
2023/10/31 08:36:02;;;;;;;;;;;24.90;42.60;;;;;;5104730;28;19969;-61
2023/10/31 08:38:29;;;;;;;;;;;25.00;42.70;;;;;;5102686;28;19928;-61
2023/10/31 08:40:58;;;;;;;;;;;25.00;42.60;;;;;;5100620;28;19935;-61
2023/10/31 08:43:26;;;;;;;;;;;25.10;43.20;;;;;;5101898;28;19934;-61
2023/10/31 08:45:53;;;;;;;;;;;25.10;42.60;;;;;;5100387;28;20296;-61
2023/10/31 08:48:21;;;;;;;;;;;25.10;42.60;;;;;;5102176;28;20417;-61
2023/10/31 08:50:49;;;;;;;;;;;25.10;42.50;;;;;;5097284;28;19927;-61
2023/10/31 08:53:16;;;;;;;;;;;25.10;42.50;;;;;;5102836;28;19977;-59
2023/10/31 08:55:44;;;;;;;;;;;25.20;42.60;;;;;;5103844;28;19927;-59
2023/10/31 08:58:12;;;;;;;;;;;25.20;42.70;;;;;;5105421;28;20692;-59
2023/10/31 09:00:41;;;;;;;;;;;25.20;42.70;;;;;;5103984;28;19928;-59
2023/10/31 09:03:08;;;;;;;;;;;25.20;42.60;;;;;;5102907;28;19942;-59
2023/10/31 09:05:36;;;;;;;;;;;25.20;42.80;;;;;;5101702;28;19977;-61
2023/10/31 09:08:03;;;;;;;;;;;25.20;42.60;;;;;;5100949;28;19932;-61
2023/10/31 09:10:30;;;;;;;;;;;25.30;42.80;;;;;;5102246;28;20433;-61
2023/10/31 09:12:58;;;;;;;;;;;25.30;42.70;;;;;;5102547;27;19931;-61
2023/10/31 09:15:25;;;;;;;;;;;25.30;42.40;;;;;;5104894;27;19932;-62
2023/10/31 09:17:52;;;;;;;;;;;25.30;42.40;;;;;;5105365;28;20022;-61
2023/10/31 09:20:19;;;;;;;;;;;25.30;42.30;;;;;;5101886;27;20775;-61
2023/10/31 09:22:49;;;;;;;;;;;25.30;42.40;;;;;;5108178;28;20024;-60
2023/10/31 09:25:16;;;;;;;;;;;25.40;42.50;;;;;;5109530;28;21990;-60
2023/10/31 09:27:43;;;;;;;;;;;25.30;42.60;;;;;;5104195;28;19923;-61
2023/10/31 09:30:10;;;;;;;;;;;25.40;42.80;;;;;;5106581;28;19931;-62
2023/10/31 09:32:37;;;;;;;;;;;25.30;42.70;;;;;;5117454;27;20349;-62
2023/10/31 09:35:05;;;;;;;;;;;25.40;42.70;;;;;;5104224;27;20384;-61
2023/10/31 09:37:32;;;;;;;;;;;25.40;42.60;;;;;;5109224;28;19969;-62
2023/10/31 09:39:59;;;;;;;;;;;25.40;42.50;;;;;;5110584;27;20390;-62
2023/10/31 09:42:27;;;;;;;;;;;25.50;42.40;;;;;;5107546;28;19928;-62
2023/10/31 09:44:55;;;;;;;;;;;25.50;42.40;;;;;;5102227;28;19933;-62
2023/10/31 09:47:22;;;;;;;;;;;25.50;42.30;;;;;;5103191;28;19973;-60
2023/10/31 09:49:50;;;;;;;;;;;25.50;42.30;;;;;;5107072;27;20010;-62
2023/10/31 09:52:17;;;;;;;;;;;25.50;42.40;;;;;;5109379;27;19976;-61
2023/10/31 09:54:44;;;;;;;;;;;25.50;42.50;;;;;;5104575;27;19931;-62
2023/10/31 09:57:14;;;;;;;;;;;25.50;42.70;;;;;;5107394;28;20383;-61
2023/10/31 09:59:42;;;;;;;;;;;25.50;42.70;;;;;;5102333;28;20280;-62
2023/10/31 10:02:09;;;;;;;;;;;25.50;42.70;;;;;;5107717;27;19932;-61
2023/10/31 10:04:37;;;;;;;;;;;25.50;42.80;;;;;;5105286;28;19932;-60
2023/10/31 10:07:04;;;;;;;;;;;25.50;42.70;;;;;;5100456;28;19928;-65
2023/10/31 10:09:32;;;;;;;;;;;25.50;42.80;;;;;;5104438;27;19954;-60
2023/10/31 10:12:01;;;;;;;;;;;25.60;43.10;;;;;;5104926;27;19928;-60
2023/10/31 10:14:31;;;;;;;;;;;25.60;43.10;;;;;;5102994;28;20010;-61
2023/10/31 10:16:58;;;;;;;;;;;25.60;43.20;;;;;;5105375;27;19967;-60
2023/10/31 10:19:26;;;;;;;;;;;25.60;43.10;;;;;;5107632;28;19927;-63
2023/10/31 10:21:55;;;;;;;;;;;25.60;42.90;;;;;;5111672;27;19923;-62
2023/10/31 10:24:24;;;;;;;;;;;25.60;42.80;;;;;;5103931;27;19932;-63
2023/10/31 10:26:51;;;;;;;;;;;25.70;42.70;;;;;;5108710;27;20372;-63
2023/10/31 10:29:18;;;;;;;;;;;25.70;42.40;;;;;;5106739;27;19924;-62
2023/10/31 10:31:46;;;;;;;;;;;25.70;42.30;;;;;;5104535;27;19923;-61
2023/10/31 10:34:14;;;;;;;;;;;25.70;42.30;;;;;;5103574;28;19949;-62
2023/10/31 10:36:44;;;;;;;;;;;25.70;42.20;;;;;;5109273;27;19924;-62
2023/10/31 10:39:11;;;;;;;;;;;25.70;42.20;;;;;;5105598;28;19935;-61
2023/10/31 10:41:40;;;;;;;;;;;25.70;42.30;;;;;;5106140;27;20349;-62
2023/10/31 10:44:07;;;;;;;;;;;25.70;42.30;;;;;;5107129;28;20289;-62
2023/10/31 10:46:35;;;;;;;;;;;25.70;42.30;;;;;;5106516;28;19959;-60
2023/10/31 10:49:06;;;;;;;;;;;25.70;42.50;;;;;;5102495;28;20410;-61
2023/10/31 10:51:54;;;;;;;;;;;25.70;42.50;;;;;;5105239;27;20491;-62
2023/10/31 10:54:27;;;;;;;;;;;25.70;42.50;;;;;;5105706;28;19924;-60
2023/10/31 10:56:59;;;;;;;;;;;25.70;42.60;;;;;;5106560;28;19924;-62
2023/10/31 10:59:36;;;;;;;;;;;25.70;42.70;;;;;;5107684;27;19923;-61
2023/10/31 11:02:04;;;;;;;;;;;25.70;42.70;;;;;;5104942;28;19976;-62
2023/10/31 11:04:33;;;;;;;;;;;25.70;42.90;;;;;;5108276;27;19957;-62
2023/10/31 11:07:01;;;;;;;;;;;25.60;43.10;;;;;;5103952;28;20411;-62
2023/10/31 11:09:30;;;;;;;;;;;25.60;43.20;;;;;;5103900;27;19969;-60
2023/10/31 11:11:57;;;;;;;;;;;25.50;43.90;;;;;;5103568;27;19924;-61
2023/10/31 11:14:25;;;;;;;;;;;25.50;44.00;;;;;;5109035;28;19988;-65
2023/10/31 11:16:54;;;;;;;;;;;25.40;44.60;;;;;;5106539;28;19984;-53
2023/10/31 11:19:22;;;;;;;;;;;25.40;45.20;;;;;;5103851;27;20020;-54
2023/10/31 11:21:57;;;;;;;;;;;25.30;45.30;;;;;;5101896;28;21066;-56
2023/10/31 11:24:36;;;;;;;;;;;25.30;45.50;;;;;;5107421;28;19930;-56
2023/10/31 11:27:05;;;;;;;;;;;25.20;45.70;;;;;;5098847;28;19938;-56
2023/10/31 11:29:32;;;;;;;;;;;25.20;45.80;;;;;;5106293;27;19935;-61
2023/10/31 11:31:59;;;;;;;;;;;25.20;46.00;;;;;;5103346;28;20292;-60
2023/10/31 11:34:28;;;;;;;;;;;25.20;46.40;;;;;;5107371;28;19971;-54
2023/10/31 11:37:16;;;;;;;;;;;25.20;46.30;;;;;;5103006;28;19924;-50
2023/10/31 11:40:03;;;;;;;;;;;25.20;46.30;;;;;;5104841;27;20413;-58
2023/10/31 11:42:33;;;;;;;;;;;25.20;46.10;;;;;;5107286;28;19924;-55
2023/10/31 11:45:00;;;;;;;;;;;25.30;46.10;;;;;;5106825;28;20442;-54
2023/10/31 11:47:44;;;;;;;;;;;25.30;46.10;;;;;;5105879;28;19924;-59
2023/10/31 11:50:12;;;;;;;;;;;25.30;46.20;;;;;;5101243;28;20575;-59
2023/10/31 11:52:39;;;;;;;;;;;25.30;46.10;;;;;;5108029;27;19939;-60
2023/10/31 11:55:13;;;;;;;;;;;25.30;45.90;;;;;;5108067;28;20264;-59
2023/10/31 11:57:40;;;;;;;;;;;25.30;45.90;;;;;;5103655;28;19935;-57
2023/10/31 12:00:19;;;;;;;;;;;25.30;46.10;;;;;;5107616;28;19924;-59
2023/10/31 12:03:00;;;;;;;;;;;25.40;46.20;;;;;;5104873;28;19966;-57
2023/10/31 12:05:27;;;;;;;;;;;25.30;46.30;;;;;;5103725;28;19938;-59
2023/10/31 12:07:55;;;;;;;;;;;25.30;46.50;;;;;;5103619;27;20907;-57
2023/10/31 12:10:24;;;;;;;;;;;25.30;46.60;;;;;;5099365;28;19963;-57
2023/10/31 12:12:51;;;;;;;;;;;25.30;46.60;;;;;;5102308;28;19936;-58
2023/10/31 12:15:18;;;;;;;;;;;25.30;46.60;;;;;;5102836;28;19924;-59
2023/10/31 12:17:45;;;;;;;;;;;25.30;46.70;;;;;;5103643;28;19937;-59
2023/10/31 12:20:13;;;;;;;;;;;25.30;46.80;;;;;;5105758;28;19927;-59
2023/10/31 12:22:40;;;;;;;;;;;25.20;46.90;;;;;;5105757;28;20640;-58
2023/10/31 12:25:08;;;;;;;;;;;25.20;46.90;;;;;;5103624;28;20376;-58
2023/10/31 12:27:49;;;;;;;;;;;25.20;46.90;;;;;;5104237;28;19974;-59
2023/10/31 12:30:17;;;;;;;;;;;25.20;47.00;;;;;;5104080;28;19927;-59
2023/10/31 12:32:44;;;;;;;;;;;25.10;47.10;;;;;;5104122;28;19976;-58
2023/10/31 12:35:16;;;;;;;;;;;25.10;47.10;;;;;;5107842;28;20023;-58
2023/10/31 12:37:45;;;;;;;;;;;25.10;47.10;;;;;;5103745;28;19931;-60
2023/10/31 12:40:14;;;;;;;;;;;25.10;47.10;;;;;;5104775;28;19939;-59
2023/10/31 12:42:42;;;;;;;;;;;25.10;47.10;;;;;;5103676;28;19977;-59
2023/10/31 12:45:09;;;;;;;;;;;25.10;47.10;;;;;;5104868;28;19963;-59
2023/10/31 12:47:37;;;;;;;;;;;25.10;47.10;;;;;;5104534;27;19924;-59
2023/10/31 12:50:09;;;;;;;;;;;25.10;47.10;;;;;;5105953;28;19984;-58
2023/10/31 12:52:50;;;;;;;;;;;25.10;47.10;;;;;;5112432;28;19950;-58
2023/10/31 12:55:21;;;;;;;;;;;25.10;47.20;;;;;;5105662;28;19931;-59
2023/10/31 12:57:49;;;;;;;;;;;25.10;47.30;;;;;;5104971;27;19923;-59
2023/10/31 13:00:24;;;;;;;;;;;25.10;47.40;;;;;;5111215;28;19924;-58
2023/10/31 13:02:51;;;;;;;;;;;25.10;47.50;;;;;;5108133;27;19924;-59
2023/10/31 13:05:19;;;;;;;;;;;25.10;47.60;;;;;;5110774;28;20387;-59
2023/10/31 13:07:49;;;;;;;;;;;25.10;47.60;;;;;;5109941;28;19927;-59
2023/10/31 13:10:16;;;;;;;;;;;25.10;47.50;;;;;;5110407;28;19930;-59
2023/10/31 13:12:47;;;;;;;;;;;25.20;47.40;;;;;;5108782;28;19939;-59
2023/10/31 13:15:14;;;;;;;;;;;25.20;47.30;;;;;;5105773;27;20000;-58
2023/10/31 13:17:43;;;;;;;;;;;25.30;47.30;;;;;;5107393;28;19928;-58
2023/10/31 13:20:11;;;;;;;;;;;25.30;47.00;;;;;;5112591;28;20573;-58
2023/10/31 13:22:39;;;;;;;;;;;25.40;47.10;;;;;;5109832;28;19935;-56
2023/10/31 13:25:10;;;;;;;;;;;25.40;47.00;;;;;;5103385;27;20341;-58
2023/10/31 13:27:38;;;;;;;;;;;25.40;46.90;;;;;;5108976;28;19931;-58
2023/10/31 13:30:05;;;;;;;;;;;25.50;47.10;;;;;;5110774;28;19935;-57
2023/10/31 13:32:33;;;;;;;;;;;25.50;46.90;;;;;;5110142;27;19935;-57
2023/10/31 13:35:00;;;;;;;;;;;25.50;46.90;;;;;;5110478;27;19966;-56
2023/10/31 13:37:27;;;;;;;;;;;25.50;47.00;;;;;;5125713;27;20010;-56
2023/10/31 13:39:55;;;;;;;;;;;25.50;47.10;;;;;;5112921;28;20007;-56
2023/10/31 13:42:22;;;;;;;;;;;25.60;47.30;;;;;;5107989;27;19977;-58
2023/10/31 13:44:49;;;;;;;;;;;25.60;47.30;;;;;;5108275;28;19934;-55
2023/10/31 13:47:17;;;;;;;;;;;25.70;47.50;;;;;;5107043;27;19927;-57
2023/10/31 13:49:44;;;;;;;;;;;25.70;47.30;;;;;;5109733;28;19963;-59
2023/10/31 13:52:12;;;;;;;;;;;25.70;47.40;;;;;;5106481;28;19931;-54
2023/10/31 13:54:39;;;;;;;;;;;25.80;47.30;;;;;;5106603;28;19931;-58
2023/10/31 13:57:07;;;;;;;;;;;25.80;47.20;;;;;;5111154;27;19924;-59
2023/10/31 13:59:34;;;;;;;;;;;25.80;47.30;;;;;;5110618;28;20372;-57
2023/10/31 14:02:01;;;;;;;;;;;25.80;47.20;;;;;;5110882;28;19955;-57
2023/10/31 14:04:28;;;;;;;;;;;25.80;47.20;;;;;;5109884;28;19931;-57
2023/10/31 14:06:56;;;;;;;;;;;25.80;47.20;;;;;;5111669;27;19955;-55
2023/10/31 14:09:24;;;;;;;;;;;25.70;47.00;;;;;;5113745;27;19932;-57
2023/10/31 14:11:51;;;;;;;;;;;25.70;47.10;;;;;;5109080;28;20001;-60
2023/10/31 14:14:19;;;;;;;;;;;25.80;47.00;;;;;;5111077;27;19976;-60
2023/10/31 14:16:46;;;;;;;;;;;25.70;47.30;;;;;;5123810;27;20019;-62
2023/10/31 14:19:13;;;;;;;;;;;25.70;47.30;;;;;;5107204;28;19980;-61
2023/10/31 14:21:41;;;;;;;;;;;25.70;47.40;;;;;;5111422;28;20395;-61